Time;durP1;ratioP1;P1;durP2;ratioP2;P2;SDS_P1;SDS_P2;PMS_P1;PMS_P2;Temp;Humidity;BMP_temperature;BMP_pressure;BME280_temperature;BME280_humidity;BME280_pressure;Samples;Min_cycle;Max_cycle;Signal;HPM_P1;HPM_P2
2022/11/16 00:01:33;;;;;;;12.77;7.43;;;10.20;99.90;;;8.72;100.00;99537.88;4876573;29;20039;-83
2022/11/16 00:04:02;;;;;;;11.85;7.38;;;10.20;99.90;;;8.72;100.00;99548.75;4874880;29;20037;-83
2022/11/16 00:06:28;;;;;;;11.70;6.82;;;10.20;99.90;;;8.64;100.00;99533.59;4874086;29;20401;-82
2022/11/16 00:11:43;;;;;;;10.73;6.95;;;10.20;99.90;;;8.62;100.00;99541.16;4875989;29;20037;-85
2022/11/16 00:14:09;;;;;;;14.82;7.90;;;10.10;99.90;;;8.63;100.00;99537.38;4876532;29;20448;-80
2022/11/16 00:16:35;;;;;;;10.75;6.97;;;10.10;99.90;;;8.53;100.00;99526.25;4873908;29;20721;-82
2022/11/16 00:19:04;;;;;;;11.82;6.68;;;10.10;99.90;;;8.58;100.00;99538.06;4874352;29;20033;-82
2022/11/16 00:21:31;;;;;;;12.45;7.90;;;10.10;99.90;;;8.51;100.00;99520.22;4873967;29;20032;-82
2022/11/16 00:23:57;;;;;;;13.52;7.90;;;10.10;99.90;;;8.49;100.00;99520.41;4874341;29;20040;-82
2022/11/16 00:26:23;;;;;;;12.25;7.70;;;10.00;99.90;;;8.51;100.00;99522.94;4874174;29;20085;-83
2022/11/16 00:28:52;;;;;;;12.05;7.75;;;10.00;99.90;;;8.48;100.00;99519.56;4872979;29;20089;-83
2022/11/16 00:31:18;;;;;;;14.65;8.00;;;10.00;99.90;;;8.45;100.00;99516.47;4873098;29;20247;-82
2022/11/16 00:33:44;;;;;;;11.30;7.45;;;10.00;99.90;;;8.40;100.00;99514.44;4872774;29;20047;-79
2022/11/16 00:36:12;;;;;;;11.38;7.20;;;9.90;99.90;;;8.41;100.00;99521.53;4871723;29;20036;-82
2022/11/16 00:38:39;;;;;;;13.30;8.32;;;9.90;99.90;;;8.46;100.00;99526.28;4873907;29;20632;-82
2022/11/16 00:41:05;;;;;;;12.65;7.80;;;10.00;99.90;;;8.42;100.00;99512.31;4873853;29;20746;-82
2022/11/16 00:43:32;;;;;;;13.15;7.72;;;9.90;99.90;;;8.46;100.00;99512.69;4873485;29;20033;-82
2022/11/16 00:45:58;;;;;;;12.65;7.55;;;10.00;99.90;;;8.45;100.00;99505.59;4873822;29;20033;-81
2022/11/16 00:48:24;;;;;;;13.18;7.05;;;10.00;99.90;;;8.49;100.00;99510.41;4872820;29;20021;-83
2022/11/16 00:50:50;;;;;;;11.63;7.20;;;10.00;99.90;;;8.51;100.00;99507.44;4872185;29;20517;-82
2022/11/16 00:53:19;;;;;;;12.32;6.82;;;10.00;99.90;;;8.56;100.00;99504.03;4871981;29;20052;-82
2022/11/16 00:55:46;;;;;;;10.50;6.65;;;10.10;99.90;;;8.56;100.00;99504.03;4868202;29;20485;-83
2022/11/16 00:58:14;;;;;;;12.30;7.15;;;10.10;99.90;;;8.53;100.00;99499.06;4880491;29;20034;-83
2022/11/16 01:00:42;;;;;;;;;;;10.10;99.90;;;8.56;100.00;99506.75;4855980;29;20032;-82
2022/11/16 01:03:09;;;;;;;13.98;6.95;;;10.10;99.90;;;8.56;100.00;99502.13;4866383;29;19923;-82
2022/11/16 01:05:35;;;;;;;9.95;6.88;;;10.10;99.90;;;8.53;100.00;99493.63;4872578;29;20025;-82
2022/11/16 01:08:01;;;;;;;11.00;7.28;;;10.00;99.90;;;8.46;100.00;99486.34;4869115;29;20037;-82
2022/11/16 01:10:27;;;;;;;11.90;7.43;;;10.00;99.90;;;8.50;100.00;99492.19;4870013;29;20052;-79
2022/11/16 01:12:54;;;;;;;12.10;7.25;;;10.00;99.90;;;8.55;100.00;99499.66;4870544;29;20382;-81
2022/11/16 01:15:23;;;;;;;12.75;7.30;;;10.00;99.90;;;8.55;100.00;99491.50;4872094;29;20039;-83
2022/11/16 01:17:52;;;;;;;12.55;7.05;;;10.00;99.90;;;8.48;100.00;99495.09;4872009;29;20523;-83
2022/11/16 01:20:22;;;;;;;13.32;7.47;;;10.00;99.90;;;8.48;100.00;99495.09;4875809;29;20064;-82
2022/11/16 01:22:48;;;;;;;11.43;7.20;;;10.00;99.90;;;8.46;100.00;99483.63;4870628;29;20067;-84
2022/11/16 01:25:14;;;;;;;11.63;7.45;;;10.00;99.90;;;8.43;100.00;99486.81;4867980;29;20029;-82
2022/11/16 01:27:41;;;;;;;13.35;8.18;;;10.00;99.90;;;8.43;100.00;99475.94;4875124;29;20032;-84
2022/11/16 01:30:15;;;;;;;11.05;7.43;;;10.00;99.90;;;8.27;100.00;99458.38;4871257;29;20029;-84
2022/11/16 01:32:47;;;;;;;13.48;7.88;;;9.90;99.90;;;8.32;100.00;99471.28;4869284;29;20041;-82
2022/11/16 01:35:17;;;;;;;14.80;8.75;;;9.90;99.90;;;8.35;100.00;99473.53;4869465;29;20108;-82
2022/11/16 01:37:44;;;;;;;14.52;7.55;;;9.90;99.90;;;8.31;100.00;99461.50;4871423;29;20025;-82
2022/11/16 01:40:12;;;;;;;13.43;8.07;;;9.90;99.90;;;8.34;100.00;99466.44;4870393;29;20049;-82
2022/11/16 01:42:39;;;;;;;12.13;8.40;;;9.90;99.90;;;8.34;100.00;99469.16;4872646;29;20528;-81
2022/11/16 01:45:36;;;;;;;15.52;7.68;;;9.90;99.90;;;8.29;100.00;99458.16;4872231;29;20039;-82
2022/11/16 01:48:05;;;;;;;12.52;8.25;;;9.80;99.90;;;8.27;100.00;99458.38;4869872;29;20061;-83
2022/11/16 01:50:34;;;;;;;15.35;8.25;;;9.80;99.90;;;8.15;100.00;99441.22;4867647;29;20037;-83
2022/11/16 01:53:06;;;;;;;13.68;8.57;;;9.80;99.90;;;8.16;100.00;99451.84;4871563;29;20458;-82
2022/11/16 01:55:43;;;;;;;15.13;7.47;;;9.70;99.90;;;8.17;100.00;99455.41;4868556;29;20060;-82
2022/11/16 01:58:21;;;;;;;16.77;8.70;;;9.70;99.90;;;8.13;100.00;99446.88;4867380;29;20244;-82
2022/11/16 02:00:52;;;;;;;14.88;9.38;;;9.70;99.90;;;8.07;100.00;99442.38;4875162;29;20104;-81
2022/11/16 02:03:28;;;;;;;14.45;8.73;;;9.60;99.90;;;8.05;100.00;99447.22;4865464;29;20025;-81
2022/11/16 02:06:40;;;;;;;16.35;8.98;;;9.60;99.90;;;8.03;100.00;99455.56;4874893;29;20115;-83
2022/11/16 02:09:52;;;;;;;15.05;9.25;;;9.60;99.90;;;8.01;100.00;99440.59;4882262;29;20095;-83
2022/11/16 02:13:12;;;;;;;13.32;8.77;;;9.60;99.90;;;7.99;100.00;99445.41;4897629;29;20029;-82
2022/11/16 02:16:23;;;;;;;14.05;8.45;;;9.50;99.90;;;7.92;100.00;99427.31;4892916;29;20115;-81
2022/11/16 02:19:34;;;;;;;13.02;8.35;;;9.50;99.90;;;8.00;100.00;99444.34;4892535;29;20044;-82
2022/11/16 02:22:31;;;;;;;16.92;8.55;;;9.50;99.90;;;8.02;100.00;99436.81;4883476;29;20127;-82
2022/11/16 02:25:11;;;;;;;16.83;9.18;;;9.50;99.90;;;8.00;100.00;99433.50;4879573;29;20030;-82
2022/11/16 02:28:19;;;;;;;15.45;9.52;;;9.50;99.90;;;8.00;100.00;99428.06;4887124;29;20025;-78
2022/11/16 02:30:51;;;;;;;12.35;9.18;;;9.50;99.90;;;8.06;100.00;99427.94;4880916;29;20025;-84
2022/11/16 02:33:26;;;;;;;15.20;9.23;;;9.50;99.90;;;8.07;100.00;99426.06;4891269;29;20033;-83
2022/11/16 02:35:59;;;;;;;15.65;9.48;;;9.60;99.90;;;8.03;100.00;99414.03;4889136;29;20025;-83
2022/11/16 02:38:34;;;;;;;17.08;9.23;;;9.60;99.90;;;8.13;100.00;99436.00;4886538;29;20033;-82
2022/11/16 02:41:21;;;;;;;14.07;9.15;;;9.60;99.90;;;8.14;100.00;99428.72;4891739;29;20092;-83
2022/11/16 02:44:03;;;;;;;18.90;9.32;;;9.60;99.90;;;8.13;100.00;99427.88;4891928;29;20057;-81
2022/11/16 02:46:37;;;;;;;15.02;9.02;;;9.70;99.90;;;8.11;100.00;99410.16;4878368;29;20025;-82
2022/11/16 02:49:18;;;;;;;17.00;9.50;;;9.70;99.90;;;8.11;100.00;99426.44;4885247;29;20032;-82
2022/11/16 02:51:47;;;;;;;15.55;9.85;;;9.60;99.90;;;8.10;100.00;99427.50;4883404;29;20496;-82
2022/11/16 02:54:19;;;;;;;19.25;9.90;;;9.60;99.90;;;8.04;100.00;99419.19;4886504;29;20040;-81
2022/11/16 02:56:49;;;;;;;17.15;9.77;;;9.60;99.90;;;8.01;100.00;99424.28;4884896;29;20037;-82
2022/11/16 02:59:17;;;;;;;17.13;11.05;;;9.50;99.90;;;8.01;100.00;99413.41;4885097;29;20055;-82
2022/11/16 03:01:55;;;;;;;16.75;10.00;;;9.50;99.90;;;7.97;100.00;99431.25;4877598;29;20089;-82
2022/11/16 03:04:34;;;;;;;16.50;10.13;;;9.50;99.90;;;7.97;100.00;99423.09;4885130;29;20033;-81
2022/11/16 03:07:04;;;;;;;17.95;10.65;;;9.50;99.90;;;7.91;100.00;99417.50;4886043;29;20116;-81
2022/11/16 03:09:36;;;;;;;16.83;9.48;;;9.50;99.90;;;7.95;100.00;99428.75;4896463;29;20448;-82
2022/11/16 03:12:07;;;;;;;16.95;10.60;;;9.50;99.90;;;7.95;100.00;99436.88;4885357;29;20056;-83
2022/11/16 03:14:54;;;;;;;15.13;10.27;;;9.50;99.90;;;7.81;100.00;99419.94;4884835;29;20033;-83
2022/11/16 03:17:36;;;;;;;18.02;10.80;;;9.50;99.90;;;7.91;100.00;99436.50;4892915;29;20033;-83
2022/11/16 03:20:28;;;;;;;18.42;11.15;;;9.50;99.90;;;7.87;100.00;99440.75;4878342;29;20044;-83
2022/11/16 03:23:04;;;;;;;17.35;11.60;;;9.40;99.90;;;7.91;100.00;99441.94;4903006;29;20025;-83
2022/11/16 03:25:44;;;;;;;20.17;11.95;;;9.40;99.90;;;7.88;100.00;99447.81;4887874;29;20044;-84
2022/11/16 03:28:17;;;;;;;19.77;11.70;;;9.40;99.90;;;7.85;100.00;99450.19;4894349;29;20051;-82
2022/11/16 03:30:54;;;;;;;20.02;12.25;;;9.40;99.90;;;7.80;100.00;99450.88;4880086;29;20041;-83
2022/11/16 03:33:31;;;;;;;20.77;12.82;;;9.40;99.90;;;7.74;100.00;99449.88;4880908;29;20048;-83
2022/11/16 03:36:15;;;;;;;20.88;12.05;;;9.30;99.90;;;7.67;100.00;99441.00;4870457;23;20656;-83
2022/11/16 03:38:46;;;;;;;20.83;13.23;;;9.30;99.90;;;7.66;100.00;99452.06;4857261;29;20030;-81
2022/11/16 03:41:13;;;;;;;24.23;13.52;;;9.20;99.90;;;7.67;100.00;99457.28;4839406;29;20034;-82
2022/11/16 03:43:43;;;;;;;17.70;12.50;;;9.20;99.90;;;7.67;100.00;99442.88;4803964;29;20129;-83
2022/11/16 03:46:10;;;;;;;25.15;13.55;;;9.20;99.90;;;7.61;100.00;99442.72;4819481;29;20797;-82
2022/11/16 03:48:39;;;;;;;23.75;13.85;;;9.20;99.90;;;7.54;100.00;99443.84;4822825;29;20106;-82
2022/11/16 03:51:12;;;;;;;20.42;13.25;;;9.10;99.90;;;7.54;100.00;99428.41;4836909;29;20061;-82
2022/11/16 03:53:39;;;;;;;23.30;14.43;;;9.10;99.90;;;7.47;100.00;99439.34;4822666;29;20513;-82
2022/11/16 03:56:06;;;;;;;25.42;15.75;;;9.00;99.90;;;7.43;100.00;99445.47;4833520;29;20046;-82
2022/11/16 03:58:32;;;;;;;28.50;16.15;;;9.00;99.90;;;7.36;100.00;99440.09;4833631;29;20393;-82
2022/11/16 04:00:57;;;;;;;29.08;15.82;;;9.00;99.90;;;7.33;100.00;99444.06;4833529;29;20062;-82
2022/11/16 04:03:25;;;;;;;;;;;8.90;99.90;;;7.31;100.00;99432.63;4826196;29;20030;-81
2022/11/16 04:25:51;;;;;;;33.65;19.42;;;8.70;99.90;;;7.16;100.00;99426.72;4847644;29;20049;-82
2022/11/16 04:28:23;;;;;;;28.75;18.08;;;8.70;99.90;;;7.14;100.00;99426.97;4836902;29;20052;-82
2022/11/16 04:39:23;;;;;;;35.72;19.35;;;8.60;99.90;;;7.01;100.00;99422.50;4838846;29;20509;-83
2022/11/16 04:47:20;;;;;;;37.05;20.27;;;8.60;99.90;;;6.96;100.00;99433.19;4832915;29;20072;-82
2022/11/16 04:49:46;;;;;;;35.63;21.02;;;8.50;99.90;;;6.95;100.00;99423.41;4822375;29;20057;-83
2022/11/16 04:52:12;;;;;;;33.30;19.60;;;8.50;99.90;;;6.91;100.00;99409.44;4822214;29;20034;-83
2022/11/16 04:54:39;;;;;;;38.67;21.55;;;8.50;99.90;;;6.85;100.00;99406.78;4819770;29;20034;-82
2022/11/16 04:57:05;;;;;;;36.88;20.98;;;8.50;99.90;;;6.85;100.00;99413.06;4843092;29;20117;-83
2022/11/16 04:59:31;;;;;;;38.63;20.90;;;8.50;99.90;;;6.85;100.00;99412.22;4824474;29;20101;-82
2022/11/16 05:02:06;;;;;;;40.47;21.27;;;8.40;99.90;;;6.81;100.00;99400.16;4819661;29;20397;-82
2022/11/16 05:04:42;;;;;;;38.65;20.70;;;8.40;99.90;;;6.82;100.00;99402.66;4833720;29;20110;-82
2022/11/16 05:07:11;;;;;;;37.95;20.05;;;8.40;99.90;;;6.80;100.00;99421.03;4829625;29;20048;-82
2022/11/16 05:09:41;;;;;;;37.53;20.23;;;8.40;99.90;;;6.81;100.00;99405.56;4819223;29;20117;-81
2022/11/16 05:12:14;;;;;;;37.58;20.67;;;8.40;99.90;;;6.79;100.00;99408.53;4825298;29;20030;-81
2022/11/16 05:14:42;;;;;;;38.83;20.95;;;8.40;99.90;;;6.76;100.00;99407.06;4823728;29;20520;-80
2022/11/16 05:17:09;;;;;;;37.92;21.25;;;8.40;99.90;;;6.77;100.00;99410.63;4833907;29;20099;-81
2022/11/16 05:22:22;;;;;;;39.40;21.30;;;8.30;99.90;;;6.71;100.00;99409.63;4818390;29;20117;-82
2022/11/16 05:24:50;;;;;;;40.17;22.02;;;8.30;99.90;;;6.67;100.00;99404.84;4817745;29;21908;-82
2022/11/16 05:27:19;;;;;;;38.55;20.98;;;8.30;99.90;;;6.64;100.00;99408.00;4817835;29;20540;-81
2022/11/16 05:29:48;;;;;;;40.80;22.45;;;8.20;99.90;;;6.58;100.00;99405.16;4830126;29;20246;-80
2022/11/16 05:32:17;;;;;;;43.67;23.38;;;8.20;99.90;;;6.54;100.00;99413.94;4833432;29;20038;-82
2022/11/16 05:34:44;;;;;;;;;;;8.10;99.90;;;6.51;100.00;99411.66;4836422;29;20075;-81
2022/11/16 05:37:11;;;;;;;44.03;22.95;;;8.10;99.90;;;6.46;100.00;99415.88;4829616;29;19989;-82
2022/11/16 05:39:38;;;;;;;45.38;24.77;;;8.10;99.90;;;6.41;100.00;99410.28;4833099;29;20557;-81
2022/11/16 05:42:06;;;;;;;45.17;24.60;;;8.00;99.90;;;6.35;100.00;99403.00;4832821;29;20118;-83
2022/11/16 05:44:32;;;;;;;47.95;25.45;;;8.00;99.90;;;6.35;100.00;99410.31;4835073;29;20057;-86
2022/11/16 05:46:59;;;;;;;50.53;25.65;;;8.00;99.90;;;6.29;100.00;99398.47;4836184;29;20041;-83
2022/11/16 05:49:25;;;;;;;46.03;24.77;;;8.00;99.90;;;6.27;100.00;99403.28;4830532;29;20034;-84
2022/11/16 05:51:52;;;;;;;46.33;25.50;;;7.90;99.90;;;6.27;100.00;99417.69;4853234;29;20113;-80
2022/11/16 05:54:26;;;;;;;45.10;24.02;;;7.90;99.90;;;6.27;100.00;99416.81;4830383;29;20062;-80
2022/11/16 05:56:53;;;;;;;46.25;25.08;;;7.80;99.90;;;6.18;100.00;99413.53;4850841;29;20030;-84
2022/11/16 05:59:22;;;;;;;47.60;25.50;;;7.80;99.90;;;6.12;100.00;99409.84;4841765;29;20045;-84
2022/11/16 06:01:51;;;;;;;45.47;25.70;;;7.80;99.90;;;6.07;100.00;99428.59;4837195;29;20022;-84
2022/11/16 06:04:18;;;;;;;45.35;24.58;;;7.70;99.90;;;5.99;100.00;99420.72;4827284;29;20486;-83
2022/11/16 06:06:44;;;;;;;46.90;24.98;;;7.70;99.90;;;5.93;100.00;99422.41;4835002;29;20038;-80
2022/11/16 06:09:12;;;;;;;45.80;24.17;;;7.60;99.90;;;5.88;100.00;99422.22;4838730;29;20034;-82
2022/11/16 06:11:39;;;;;;;44.42;25.40;;;7.50;99.90;;;5.83;100.00;99422.88;4849686;29;20101;-80
2022/11/16 06:14:05;;;;;;;50.42;26.42;;;7.50;99.90;;;5.83;100.00;99428.28;4845809;29;20043;-81
2022/11/16 06:16:33;;;;;;;54.17;27.95;;;7.50;99.90;;;5.74;100.00;99421.47;4850654;29;20078;-85
2022/11/16 06:19:02;;;;;;;51.92;27.63;;;7.40;99.90;;;5.76;100.00;99435.59;4828992;29;20121;-85
2022/11/16 06:21:27;;;;;;;54.88;27.63;;;7.40;99.90;;;5.72;100.00;99426.25;4837408;29;20343;-85
2022/11/16 06:23:53;;;;;;;54.92;28.13;;;7.40;99.90;;;5.71;100.00;99433.56;4839421;29;20289;-82
2022/11/16 06:26:19;;;;;;;54.05;28.80;;;7.30;99.90;;;5.70;100.00;99436.47;4837986;29;20035;-85
2022/11/16 06:28:46;;;;;;;63.13;30.73;;;7.30;99.90;;;5.68;100.00;99435.84;4821793;29;20433;-81
2022/11/16 06:31:13;;;;;;;55.05;29.55;;;7.30;99.90;;;5.65;100.00;99437.09;4820936;29;20402;-81
2022/11/16 06:33:41;;;;;;;57.30;30.98;;;7.30;99.90;;;5.67;100.00;99448.53;4836872;29;20026;-80
2022/11/16 06:36:14;;;;;;;58.50;29.23;;;7.30;99.90;;;5.66;100.00;99435.25;4831487;29;20050;-80
2022/11/16 06:38:40;;;;;;;64.93;30.63;;;7.30;99.90;;;5.57;100.00;99427.38;4824378;29;20050;-82
2022/11/16 06:41:08;;;;;;;58.50;30.50;;;7.30;99.90;;;5.56;100.00;99428.38;4834528;29;20494;-78
2022/11/16 06:43:39;;;;;;;65.70;32.75;;;7.20;99.90;;;5.58;100.00;99437.16;4828877;29;20550;-77
2022/11/16 06:46:05;;;;;;;63.72;31.30;;;7.20;99.90;;;5.58;100.00;99439.84;4819923;29;20521;-81
2022/11/16 06:48:32;;;;;;;62.75;30.67;;;7.20;99.90;;;5.54;100.00;99438.59;4837163;29;20030;-84
2022/11/16 06:50:59;;;;;;;70.93;32.15;;;7.20;99.90;;;5.38;100.00;99412.84;4839915;29;20026;-81
2022/11/16 06:53:28;;;;;;;67.07;33.78;;;7.10;99.90;;;5.47;100.00;99429.69;4830625;29;20471;-83
2022/11/16 06:55:59;;;;;;;71.80;34.20;;;7.10;99.90;;;5.44;100.00;99430.97;4839759;29;20447;-80
2022/11/16 06:58:24;;;;;;;70.20;32.67;;;7.10;99.90;;;5.43;100.00;99423.03;4847677;29;20041;-80
2022/11/16 07:00:50;;;;;;;64.82;33.38;;;7.10;99.90;;;5.41;100.00;99417.00;4822200;29;20350;-81
2022/11/16 07:03:17;;;;;;;70.38;34.65;;;7.10;99.90;;;5.40;100.00;99418.06;4839440;29;20058;-82
2022/11/16 07:05:43;;;;;;;68.30;33.50;;;7.00;99.90;;;5.35;100.00;99424.09;4831846;29;20026;-82
2022/11/16 07:08:12;;;;;;;72.28;34.33;;;7.00;99.90;;;5.28;100.00;99410.59;4851279;29;20489;-83
2022/11/16 07:10:38;;;;;;;73.40;35.85;;;7.00;99.90;;;5.25;100.00;99411.00;4843159;29;20058;-82
2022/11/16 07:13:06;;;;;;;75.72;35.20;;;6.90;99.90;;;5.23;100.00;99415.81;4856655;29;20022;-83
2022/11/16 07:15:34;;;;;;;71.72;34.33;;;6.90;99.90;;;5.22;100.00;99433.06;4844307;29;20094;-82
2022/11/16 07:18:06;;;;;;;70.25;36.53;;;6.80;99.90;;;5.22;100.00;99435.78;4831778;29;20034;-82
2022/11/16 07:20:36;;;;;;;74.78;36.72;;;6.90;99.90;;;5.15;100.00;99416.03;4830778;29;20034;-84
2022/11/16 07:23:03;;;;;;;77.55;35.83;;;6.90;99.90;;;5.14;100.00;99420.59;4843409;29;20135;-83
2022/11/16 07:25:32;;;;;;;;;;;6.90;99.90;;;5.19;100.00;99417.28;4848151;29;20523;-83
2022/11/16 07:27:58;;;;;;;79.15;35.25;;;6.80;99.90;;;5.20;100.00;99418.13;4840983;29;19924;-83
2022/11/16 07:30:27;;;;;;;82.00;37.78;;;6.80;99.90;;;5.12;100.00;99409.16;4839482;29;20034;-85
2022/11/16 07:33:03;;;;;;;78.45;36.85;;;6.80;99.90;;;5.13;100.00;99415.44;4839788;29;20574;-83
2022/11/16 07:35:47;;;;;;;76.80;36.90;;;6.80;99.90;;;5.05;100.00;99411.06;4833541;29;20057;-81
2022/11/16 07:38:14;;;;;;;84.10;38.92;;;6.80;99.90;;;5.10;100.00;99416.66;4833925;29;20034;-82
2022/11/16 07:40:39;;;;;;;84.68;38.10;;;6.80;99.90;;;4.94;100.00;99385.50;4835555;29;20045;-74
2022/11/16 07:43:07;;;;;;;78.50;36.90;;;6.80;99.90;;;5.08;100.00;99407.13;4831987;29;20053;-73
2022/11/16 07:45:52;;;;;;;86.75;38.70;;;6.80;99.90;;;5.09;100.00;99409.59;4814835;29;20048;-74
2022/11/16 07:48:18;;;;;;;79.88;37.88;;;6.80;99.90;;;5.03;100.00;99391.53;4829019;29;20126;-74
2022/11/16 07:51:12;;;;;;;81.45;37.55;;;6.80;99.90;;;5.12;100.00;99411.88;4818231;29;20158;-74
2022/11/16 07:53:44;;;;;;;87.03;38.70;;;6.80;99.90;;;5.06;100.00;99401.91;4829075;29;20082;-74
2022/11/16 07:56:11;;;;;;;84.55;38.70;;;6.80;99.90;;;5.03;100.00;99400.44;4819762;29;20041;-73
2022/11/16 07:58:39;;;;;;;74.80;37.15;;;6.70;99.90;;;5.00;100.00;99411.69;4823720;29;20455;-74
2022/11/16 08:01:13;;;;;;;80.55;37.97;;;6.70;99.90;;;5.00;100.00;99413.56;4832257;29;20034;-74
2022/11/16 08:03:41;;;;;;;79.38;35.95;;;6.70;99.90;;;4.98;100.00;99404.84;4816923;29;20317;-74
2022/11/16 08:06:19;;;;;;;76.47;35.67;;;6.70;99.90;;;4.93;100.00;99421.69;4817200;29;20050;-74
2022/11/16 08:08:45;;;;;;;81.80;37.90;;;6.60;99.90;;;4.94;100.00;99423.34;4817097;29;20326;-74
2022/11/16 08:11:12;;;;;;;75.32;36.10;;;6.60;99.90;;;4.93;100.00;99420.88;4820896;29;20037;-73
2022/11/16 08:13:39;;;;;;;78.53;36.42;;;6.60;99.90;;;4.92;100.00;99436.25;4822741;29;20071;-73
2022/11/16 08:16:16;;;;;;;77.25;36.35;;;6.60;99.90;;;4.94;100.00;99444.16;4832249;29;20035;-74
2022/11/16 08:18:46;;;;;;;80.95;37.10;;;6.60;99.90;;;4.89;100.00;99442.88;4832096;29;20034;-73
2022/11/16 08:21:17;;;;;;;77.88;36.47;;;6.60;99.90;;;4.89;100.00;99451.00;4831816;29;20402;-74
2022/11/16 08:23:44;;;;;;;81.22;37.72;;;6.50;99.90;;;4.89;100.00;99455.59;4828833;29;20258;-74
2022/11/16 08:26:16;;;;;;;79.18;36.10;;;6.60;99.90;;;4.84;100.00;99450.78;4817856;29;20083;-74
2022/11/16 08:28:52;;;;;;;76.68;35.70;;;6.60;99.90;;;4.92;100.00;99447.06;4818066;29;20502;-74
2022/11/16 08:31:27;;;;;;;78.60;37.42;;;6.60;99.90;;;4.85;100.00;99457.03;4829216;29;20041;-74
2022/11/16 08:33:59;;;;;;;78.47;37.28;;;6.60;99.90;;;4.81;100.00;99455.81;4825402;29;20030;-75
2022/11/16 08:36:25;;;;;;;73.45;36.55;;;6.50;99.90;;;4.75;100.00;99444.75;4817233;29;20107;-75
2022/11/16 08:38:52;;;;;;;78.50;36.80;;;6.50;99.90;;;4.71;100.00;99453.50;4816849;29;20030;-74
2022/11/16 08:41:21;;;;;;;75.07;35.28;;;6.40;99.90;;;4.68;100.00;99479.06;4831801;29;20038;-75
2022/11/16 08:43:49;;;;;;;78.35;36.25;;;6.40;99.90;;;4.73;100.00;99467.66;4831974;29;20607;-74
2022/11/16 08:46:16;;;;;;;79.60;37.33;;;6.40;99.90;;;4.71;100.00;99478.66;4831882;29;20417;-74
2022/11/16 08:48:45;;;;;;;80.35;36.92;;;6.40;99.90;;;4.72;100.00;99474.09;4831699;29;20026;-74
2022/11/16 08:51:14;;;;;;;77.93;37.15;;;6.40;99.90;;;4.74;100.00;99467.41;4832588;29;20030;-75
2022/11/16 08:53:44;;;;;;;82.47;36.08;;;6.40;99.90;;;4.69;100.00;99472.63;4808964;29;20232;-74
2022/11/16 08:56:12;;;;;;;78.30;37.17;;;6.40;99.90;;;4.71;100.00;99475.94;4831576;29;20526;-75
2022/11/16 08:58:45;;;;;;;72.43;36.42;;;6.40;99.90;;;4.70;100.00;99485.09;4827973;29;20405;-75
2022/11/16 09:01:18;;;;;;;78.03;37.08;;;6.40;99.90;;;4.71;100.00;99492.16;4831283;29;20534;-75
2022/11/16 09:03:45;;;;;;;74.43;36.78;;;6.40;99.90;;;4.69;100.00;99498.81;4817854;29;20124;-75
2022/11/16 09:06:12;;;;;;;67.82;33.33;;;6.40;99.90;;;4.66;100.00;99493.84;4817655;29;20046;-75
2022/11/16 09:08:41;;;;;;;72.90;35.30;;;6.40;99.90;;;4.58;100.00;99482.16;4819542;29;20090;-74
2022/11/16 09:11:12;;;;;;;71.32;33.67;;;6.30;99.90;;;4.66;100.00;99496.53;4821002;29;20038;-74
2022/11/16 09:13:38;;;;;;;71.30;34.95;;;6.40;99.90;;;4.73;100.00;99502.78;4821280;29;20038;-74
2022/11/16 09:16:04;;;;;;;67.50;33.55;;;6.40;99.90;;;4.75;100.00;99498.81;4820876;29;20057;-74
2022/11/16 09:18:31;;;;;;;71.50;36.00;;;6.40;99.90;;;4.80;100.00;99500.91;4821114;29;20035;-74
2022/11/16 09:20:57;;;;;;;73.93;36.65;;;6.50;99.90;;;4.78;100.00;99505.69;4825853;29;20390;-75
2022/11/16 09:23:23;;;;;;;76.13;36.38;;;6.50;99.90;;;4.75;100.00;99498.00;4821092;29;20033;-74
2022/11/16 09:25:48;;;;;;;69.07;34.72;;;6.50;99.90;;;4.83;100.00;99495.06;4821107;29;20034;-75
2022/11/16 09:28:15;;;;;;;70.03;34.72;;;6.50;99.90;;;4.82;100.00;99506.09;4821850;29;20146;-73
2022/11/16 09:30:43;;;;;;;72.57;35.42;;;6.50;99.90;;;4.79;100.00;99493.84;4821353;29;20045;-74
2022/11/16 09:33:09;;;;;;;70.95;34.58;;;6.60;99.90;;;4.79;100.00;99510.03;4820897;29;20452;-74
2022/11/16 09:35:34;;;;;;;73.45;35.03;;;6.50;99.90;;;4.87;100.00;99509.03;4821002;29;20138;-74
2022/11/16 09:38:00;;;;;;;69.20;34.60;;;6.60;99.90;;;4.82;100.00;99508.81;4820533;29;20038;-75
2022/11/16 09:40:44;;;;;;;69.97;33.78;;;6.60;99.90;;;4.81;100.00;99515.25;4821033;29;20065;-74
2022/11/16 09:43:44;;;;;;;68.45;34.15;;;6.50;99.90;;;4.81;100.00;99513.38;4820155;29;20339;-74
2022/11/16 09:46:38;;;;;;;72.40;37.15;;;6.50;99.90;;;4.77;100.00;99505.88;4821768;29;20061;-75
2022/11/16 09:49:19;;;;;;;70.63;34.13;;;6.50;99.90;;;4.82;100.00;99514.22;4827241;29;20042;-74
2022/11/16 09:51:54;;;;;;;72.05;35.90;;;6.50;99.90;;;4.81;100.00;99510.66;4820093;29;20042;-75
2022/11/16 09:54:26;;;;;;;64.35;32.97;;;6.50;99.90;;;4.89;100.00;99504.22;4820367;29;20290;-74
2022/11/16 09:56:57;;;;;;;73.75;34.65;;;6.60;99.90;;;4.95;100.00;99502.59;4824617;29;20077;-75
2022/11/16 09:59:31;;;;;;;71.95;34.78;;;6.60;99.90;;;5.00;100.00;99494.66;4820450;29;20023;-74
2022/11/16 10:02:04;;;;;;;69.28;33.95;;;6.70;99.90;;;5.06;100.00;99499.25;4820397;29;20042;-74
2022/11/16 10:04:46;;;;;;;78.50;36.47;;;6.70;99.90;;;4.99;100.00;99493.81;4820298;29;20034;-74
2022/11/16 10:07:15;;;;;;;74.47;35.03;;;6.70;99.90;;;4.93;100.00;99491.97;4820241;29;20095;-75
2022/11/16 10:09:43;;;;;;;67.97;34.55;;;6.70;99.90;;;4.85;100.00;99500.28;4820242;29;20038;-75
2022/11/16 10:12:36;;;;;;;;;;;6.60;99.90;;;4.95;100.00;99486.38;4820027;29;20405;-74
2022/11/16 10:15:08;;;;;;;69.90;32.65;;;6.60;99.90;;;4.96;100.00;99491.53;4819742;29;20023;-74
2022/11/16 10:18:15;;;;;;;64.63;31.10;;;6.70;99.90;;;4.87;100.00;99482.00;4822229;29;20034;-74
2022/11/16 10:21:18;;;;;;;66.03;31.70;;;6.60;99.90;;;4.87;100.00;99485.50;4818642;29;20038;-74
2022/11/16 10:24:10;;;;;;;66.82;30.02;;;6.60;99.90;;;4.92;100.00;99484.91;4819992;29;20666;-74
2022/11/16 10:26:45;;;;;;;66.45;31.58;;;6.60;99.90;;;4.96;100.00;99493.44;4820049;29;20038;-74
2022/11/16 10:29:36;;;;;;;70.07;31.55;;;6.60;99.90;;;4.89;100.00;99488.03;4832441;29;20157;-74
2022/11/16 10:32:13;;;;;;;69.30;32.00;;;6.60;99.90;;;4.88;100.00;99486.34;4820017;29;20046;-74
2022/11/16 10:35:10;;;;;;;68.35;30.85;;;6.50;99.90;;;4.85;100.00;99489.47;4819573;29;20493;-74
2022/11/16 10:37:45;;;;;;;70.13;31.25;;;6.60;99.90;;;4.79;100.00;99483.03;4820010;29;20050;-74
2022/11/16 10:40:24;;;;;;;66.78;30.80;;;6.50;99.90;;;4.84;100.00;99488.63;4833794;29;20133;-74
2022/11/16 10:43:14;;;;;;;;;;;6.50;99.90;;;4.80;100.00;99481.16;4820298;29;20042;-74
2022/11/16 10:45:54;;;;;;;66.95;30.05;;;6.50;99.90;;;4.81;100.00;99480.13;4819984;29;19959;-74
2022/11/16 10:48:47;;;;;;;68.13;30.77;;;6.50;99.90;;;4.84;100.00;99471.59;4819681;29;20035;-74
2022/11/16 10:51:13;;;;;;;70.20;29.95;;;6.50;99.90;;;4.84;100.00;99472.41;4819822;29;20041;-74
2022/11/16 10:53:42;;;;;;;76.57;31.48;;;6.50;99.90;;;4.85;100.00;99465.16;4819725;29;20113;-74
2022/11/16 10:56:26;;;;;;;68.55;30.35;;;6.50;99.90;;;4.86;100.00;99461.41;4819280;29;20099;-74
2022/11/16 10:59:06;;;;;;;73.03;30.60;;;6.50;99.90;;;4.82;100.00;99455.59;4819733;29;20030;-73
2022/11/16 11:01:49;;;;;;;70.05;31.02;;;6.50;99.90;;;4.82;100.00;99460.97;4819557;29;20112;-73
2022/11/16 11:04:30;;;;;;;66.35;29.05;;;6.50;99.90;;;4.87;100.00;99468.47;4833387;29;20035;-73
2022/11/16 11:07:20;;;;;;;68.47;29.63;;;6.50;99.90;;;4.91;100.00;99458.91;4820107;29;20039;-73
2022/11/16 11:09:52;;;;;;;69.22;29.02;;;6.60;99.90;;;4.88;100.00;99456.63;4825265;29;20061;-74
2022/11/16 11:12:38;;;;;;;64.72;29.65;;;6.60;99.90;;;4.92;100.00;99454.34;4819532;29;20121;-73
2022/11/16 11:15:10;;;;;;;61.97;27.35;;;6.60;99.90;;;4.92;100.00;99462.47;4824283;29;20529;-74
2022/11/16 11:17:46;;;;;;;65.35;28.52;;;6.60;99.90;;;4.93;100.00;99462.22;4819605;29;20042;-73